createdAt,value
2022-08-23T00:00:27.318Z,25.20
2022-08-23T00:03:18.306Z,25.20
2022-08-23T00:06:05.794Z,25.20
2022-08-23T00:08:54.108Z,25.10
2022-08-23T00:11:45.110Z,25.00
2022-08-23T00:14:34.032Z,24.90
2022-08-23T00:17:33.159Z,24.80
2022-08-23T00:20:23.010Z,24.80
2022-08-23T00:23:09.411Z,24.80
2022-08-23T00:25:55.695Z,24.70
2022-08-23T00:28:42.240Z,24.70
2022-08-23T00:31:28.824Z,24.80
2022-08-23T00:34:15.664Z,24.70
2022-08-23T00:37:03.604Z,24.60
2022-08-23T00:39:50.110Z,24.60
2022-08-23T00:43:01.416Z,24.60
2022-08-23T00:46:10.908Z,24.60
2022-08-23T00:48:58.106Z,24.60
2022-08-23T00:51:53.493Z,24.60
2022-08-23T00:54:43.864Z,24.40
2022-08-23T00:57:32.287Z,24.40
2022-08-23T01:00:19.886Z,24.50
2022-08-23T01:03:10.097Z,24.40
2022-08-23T01:06:02.456Z,24.30
2022-08-23T01:08:53.694Z,24.20
2022-08-23T01:11:46.837Z,24.20
2022-08-23T01:14:39.215Z,24.20
2022-08-23T01:17:31.897Z,24.20
2022-08-23T01:20:22.501Z,24.20
2022-08-23T01:23:30.813Z,24.30
2022-08-23T01:26:21.586Z,24.40
2022-08-23T01:29:08.947Z,24.40
2022-08-23T01:31:55.741Z,23.80
2022-08-23T01:34:45.775Z,24.20
2022-08-23T01:37:38.044Z,24.20
2022-08-23T01:40:25.930Z,24.00
2022-08-23T01:43:14.427Z,23.90
2022-08-23T01:46:10.456Z,24.00
2022-08-23T01:48:58.446Z,24.00
2022-08-23T01:51:45.441Z,24.50
2022-08-23T01:54:31.975Z,24.00
2022-08-23T01:57:19.841Z,24.00
2022-08-23T02:00:08.306Z,24.00
2022-08-23T02:02:54.739Z,24.00
2022-08-23T02:05:42.741Z,24.10
2022-08-23T02:08:47.034Z,24.00
2022-08-23T02:11:37.051Z,23.90
2022-08-23T02:14:25.228Z,23.90
2022-08-23T02:17:11.816Z,24.00
2022-08-23T02:19:58.234Z,23.80
2022-08-23T02:22:44.804Z,23.80
2022-08-23T02:25:31.421Z,24.00
2022-08-23T02:28:17.936Z,24.10
2022-08-23T02:31:06.063Z,23.60
2022-08-23T02:36:57.007Z,23.70
2022-08-23T02:39:44.126Z,24.10
2022-08-23T02:42:30.824Z,23.60
2022-08-23T02:45:18.409Z,23.70
2022-08-23T02:48:08.288Z,23.50
2022-08-23T02:51:00.408Z,23.50
2022-08-23T02:53:47.847Z,23.50
2022-08-23T02:56:34.891Z,23.40
2022-08-23T02:59:21.513Z,23.30
2022-08-23T03:02:08.700Z,23.30
2022-08-23T03:04:56.846Z,23.20
2022-08-23T03:07:44.159Z,23.10
2022-08-23T03:10:31.288Z,23.10
2022-08-23T03:13:19.152Z,23.10
2022-08-23T03:16:06.330Z,23.10
2022-08-23T03:18:53.789Z,23.00
2022-08-23T03:21:43.318Z,23.00
2022-08-23T03:24:30.592Z,23.40
2022-08-23T03:27:17.332Z,23.00
2022-08-23T03:30:04.449Z,23.40
2022-08-23T03:32:56.237Z,23.00
2022-08-23T03:35:42.974Z,23.00
2022-08-23T03:38:31.209Z,23.10
2022-08-23T03:41:17.774Z,22.80
2022-08-23T03:44:04.841Z,22.80
2022-08-23T03:46:51.557Z,22.90
2022-08-23T03:49:38.089Z,22.90
2022-08-23T03:52:24.582Z,22.90
2022-08-23T03:55:12.452Z,22.90
2022-08-23T03:57:58.826Z,23.00
2022-08-23T04:00:45.586Z,22.80
2022-08-23T04:03:32.128Z,22.80
2022-08-23T04:06:19.586Z,23.10
2022-08-23T04:09:06.053Z,22.80
2022-08-23T04:11:53.877Z,22.70
2022-08-23T04:14:40.492Z,22.60
2022-08-23T04:17:27.199Z,23.10
2022-08-23T04:20:13.819Z,22.70
2022-08-23T04:23:00.148Z,22.60
2022-08-23T04:25:46.539Z,22.60
2022-08-23T04:28:34.753Z,22.70
2022-08-23T04:31:22.706Z,22.70
2022-08-23T04:34:09.109Z,23.50
2022-08-23T04:36:55.588Z,22.80
2022-08-23T04:40:00.178Z,22.90
2022-08-23T04:42:46.699Z,22.90
2022-08-23T04:45:34.514Z,22.70
2022-08-23T04:48:21.585Z,22.80
2022-08-23T04:51:08.672Z,23.20
2022-08-23T04:53:55.477Z,22.70
2022-08-23T04:56:43.599Z,22.80
2022-08-23T04:59:30.325Z,22.70
2022-08-23T05:02:18.890Z,22.80
2022-08-23T05:05:06.117Z,22.80
2022-08-23T05:07:52.593Z,22.00
2022-08-23T05:10:39.060Z,22.70
2022-08-23T05:13:25.546Z,22.80
2022-08-23T05:16:12.147Z,22.90
2022-08-23T05:19:00.154Z,22.80
2022-08-23T05:21:46.553Z,22.80
2022-08-23T05:24:33.199Z,22.70
2022-08-23T05:27:19.505Z,22.70
2022-08-23T05:30:08.030Z,22.70
2022-08-23T05:33:01.860Z,22.70
2022-08-23T05:35:50.652Z,22.70
2022-08-23T05:38:38.068Z,22.60
2022-08-23T05:41:36.982Z,22.90
2022-08-23T05:44:25.108Z,22.80
2022-08-23T05:47:15.087Z,23.00
2022-08-23T05:50:02.139Z,22.90
2022-08-23T05:52:51.174Z,22.90
2022-08-23T05:55:38.267Z,23.00
2022-08-23T05:58:24.748Z,23.10
2022-08-23T06:01:11.971Z,23.10
2022-08-23T06:04:00.939Z,23.30
2022-08-23T06:06:48.322Z,23.40
2022-08-23T06:09:36.658Z,23.50
2022-08-23T06:12:22.957Z,23.40
2022-08-23T06:15:10.292Z,23.50
2022-08-23T06:17:57.160Z,23.60
2022-08-23T06:20:43.738Z,23.50
2022-08-23T06:23:30.721Z,24.30
2022-08-23T06:26:21.949Z,23.70
2022-08-23T06:29:11.306Z,23.80
2022-08-23T06:31:57.896Z,23.80
2022-08-23T06:34:51.664Z,23.60
2022-08-23T06:37:58.679Z,24.00
2022-08-23T06:40:45.416Z,23.80
2022-08-23T06:43:34.130Z,23.80
2022-08-23T06:46:23.675Z,24.00
2022-08-23T06:49:10.421Z,24.00
2022-08-23T06:52:00.019Z,24.20
2022-08-23T06:54:47.584Z,24.30
2022-08-23T06:57:34.201Z,24.30
2022-08-23T07:00:22.809Z,24.50
2022-08-23T07:03:09.430Z,24.60
2022-08-23T07:05:56.565Z,24.70
2022-08-23T07:08:42.994Z,24.80
2022-08-23T07:11:31.252Z,24.80
2022-08-23T07:14:19.793Z,24.80
2022-08-23T07:17:09.609Z,24.80
2022-08-23T07:19:56.501Z,24.70
2022-08-23T07:22:44.498Z,24.80
2022-08-23T07:25:30.996Z,25.00
2022-08-23T07:28:17.936Z,24.80
2022-08-23T07:31:12.385Z,24.90
2022-08-23T07:34:05.327Z,25.00
2022-08-23T07:36:53.941Z,25.10
2022-08-23T07:39:40.885Z,25.20
2022-08-23T07:42:27.484Z,25.30
2022-08-23T07:45:13.983Z,25.50
2022-08-23T07:48:02.392Z,25.60
2022-08-23T07:50:57.851Z,25.20
2022-08-23T07:53:46.145Z,25.40
2022-08-23T07:56:33.040Z,25.60
2022-08-23T07:59:19.685Z,25.90
2022-08-23T08:02:06.413Z,25.80
2022-08-23T08:04:53.113Z,26.30
2022-08-23T08:07:44.726Z,26.90
2022-08-23T08:10:35.924Z,26.60
2022-08-23T08:13:22.421Z,27.90
2022-08-23T08:16:10.335Z,28.30
2022-08-23T08:18:59.334Z,28.90
2022-08-23T08:21:47.225Z,29.60
2022-08-23T08:24:35.729Z,30.40
2022-08-23T08:27:22.436Z,30.30
2022-08-23T08:30:11.797Z,30.90
2022-08-23T08:32:59.568Z,30.20
2022-08-23T08:35:57.664Z,30.40
2022-08-23T08:38:47.918Z,30.90
2022-08-23T08:41:48.691Z,31.50
2022-08-23T08:44:54.134Z,31.70
2022-08-23T08:47:47.957Z,32.30
2022-08-23T08:50:40.883Z,33.10
2022-08-23T08:53:32.179Z,33.40
2022-08-23T08:56:23.489Z,33.90
2022-08-23T08:59:20.209Z,33.80
2022-08-23T09:02:22.021Z,33.80
2022-08-23T09:05:22.973Z,33.90
2022-08-23T09:08:32.230Z,33.70
2022-08-23T09:11:33.478Z,34.00
2022-08-23T09:14:45.892Z,34.50
2022-08-23T09:17:40.779Z,35.30
2022-08-23T09:20:33.160Z,36.20
2022-08-23T09:23:25.770Z,36.30
2022-08-23T09:26:24.489Z,36.60
2022-08-23T09:29:20.968Z,36.60
2022-08-23T09:32:28.394Z,36.20
2022-08-23T09:35:18.135Z,36.50
2022-08-23T09:38:16.261Z,37.10
2022-08-23T09:41:17.983Z,37.50
2022-08-23T09:44:07.573Z,36.10
2022-08-23T09:47:06.924Z,36.10
2022-08-23T09:49:55.098Z,36.60
2022-08-23T09:52:42.200Z,37.40
2022-08-23T09:55:33.016Z,37.50
2022-08-23T09:58:33.056Z,37.30
2022-08-23T10:01:22.912Z,37.00
2022-08-23T10:04:13.525Z,37.00
2022-08-23T10:07:02.559Z,36.90
2022-08-23T10:09:48.885Z,37.40
2022-08-23T10:12:35.253Z,37.90
2022-08-23T10:15:27.282Z,38.00
2022-08-23T10:18:31.194Z,38.00
2022-08-23T10:21:24.328Z,37.80
2022-08-23T10:24:24.137Z,37.80
2022-08-23T10:27:48.757Z,38.30
2022-08-23T10:30:43.102Z,38.70
2022-08-23T10:33:44.297Z,37.80
2022-08-23T10:36:39.421Z,37.30
2022-08-23T10:39:29.633Z,38.00
2022-08-23T10:42:33.761Z,38.20
2022-08-23T10:45:26.390Z,38.80
2022-08-23T10:48:27.298Z,38.50
2022-08-23T10:51:23.032Z,38.10
2022-08-23T10:54:29.440Z,38.30
2022-08-23T10:57:20.448Z,38.20
2022-08-23T11:00:10.231Z,37.50
2022-08-23T11:03:03.932Z,37.90
2022-08-23T11:06:25.310Z,38.30
2022-08-23T11:09:32.283Z,38.80
2022-08-23T11:12:29.197Z,38.80
2022-08-23T11:15:26.116Z,38.70
2022-08-23T11:18:33.552Z,39.30
2022-08-23T11:21:45.477Z,39.10
2022-08-23T11:24:51.855Z,39.70
2022-08-23T11:27:42.731Z,39.90
2022-08-23T11:30:47.003Z,39.90
2022-08-23T11:33:38.132Z,40.30
2022-08-23T11:36:26.440Z,40.30
2022-08-23T11:39:18.670Z,40.40
2022-08-23T11:42:12.042Z,40.10
2022-08-23T11:45:01.540Z,40.40
2022-08-23T11:47:53.370Z,40.50
2022-08-23T11:50:54.273Z,39.60
2022-08-23T11:53:59.726Z,39.50
2022-08-23T11:57:04.901Z,40.20
2022-08-23T12:00:17.443Z,41.20
2022-08-23T12:03:06.763Z,41.40
2022-08-23T12:06:12.811Z,42.30
2022-08-23T12:09:02.183Z,41.90
2022-08-23T12:12:13.315Z,42.90
2022-08-23T12:15:01.986Z,43.30
2022-08-23T12:18:14.228Z,43.30
2022-08-23T12:21:03.024Z,43.10
2022-08-23T12:23:52.288Z,42.80
2022-08-23T12:26:49.572Z,41.00
2022-08-23T12:29:53.889Z,40.70
2022-08-23T12:32:49.159Z,40.40
2022-08-23T12:35:48.649Z,40.80
2022-08-23T12:38:42.902Z,39.90
2022-08-23T12:41:33.594Z,40.60
2022-08-23T12:44:22.389Z,40.20
2022-08-23T12:47:15.843Z,39.60
2022-08-23T12:50:06.106Z,39.00
2022-08-23T12:53:02.847Z,40.50
2022-08-23T12:55:52.183Z,42.20
2022-08-23T12:58:40.128Z,44.10
2022-08-23T13:01:29.792Z,45.10
2022-08-23T13:04:17.679Z,45.90
2022-08-23T13:07:06.917Z,46.40
2022-08-23T13:09:56.655Z,45.70
2022-08-23T13:12:43.825Z,43.90
2022-08-23T13:15:50.047Z,41.50
2022-08-23T13:18:45.884Z,39.90
2022-08-23T13:21:39.545Z,38.80
2022-08-23T13:24:38.461Z,38.00
2022-08-23T13:27:36.532Z,37.50
2022-08-23T13:30:27.267Z,38.70
2022-08-23T13:33:22.919Z,40.20
2022-08-23T13:36:13.906Z,41.00
2022-08-23T13:39:06.551Z,39.70
2022-08-23T13:41:53.129Z,38.50
2022-08-23T13:44:40.857Z,37.40
2022-08-23T13:47:29.431Z,37.00
2022-08-23T13:50:18.357Z,36.70
2022-08-23T13:53:20.661Z,36.10
2022-08-23T13:56:07.098Z,36.10
2022-08-23T13:58:57.164Z,36.30
2022-08-23T14:01:45.284Z,38.20
2022-08-23T14:04:32.325Z,40.80
2022-08-23T14:07:19.150Z,42.60
2022-08-23T14:10:06.222Z,43.60
2022-08-23T14:12:55.260Z,42.20
2022-08-23T14:16:32.199Z,40.70
2022-08-23T14:21:58.034Z,38.40
2022-08-23T14:24:45.451Z,37.40
2022-08-23T14:27:32.381Z,36.60
2022-08-23T14:30:29.447Z,36.10
2022-08-23T14:33:16.558Z,35.70
2022-08-23T14:36:05.969Z,35.50
2022-08-23T14:38:52.469Z,37.10
2022-08-23T14:41:38.829Z,37.60
2022-08-23T14:44:29.041Z,38.30
2022-08-23T14:47:20.301Z,39.50
2022-08-23T14:50:10.032Z,41.00
2022-08-23T14:52:58.328Z,41.50
2022-08-23T14:55:45.949Z,40.60
2022-08-23T14:58:32.724Z,39.80
2022-08-23T15:01:19.942Z,39.00
2022-08-23T15:04:06.712Z,38.40
2022-08-23T15:07:16.589Z,37.70
2022-08-23T15:10:03.182Z,37.20
2022-08-23T15:13:01.854Z,36.30
2022-08-23T15:15:57.429Z,36.10
2022-08-23T15:18:47.529Z,35.90
2022-08-23T15:21:34.480Z,35.80
2022-08-23T15:24:21.161Z,35.70
2022-08-23T15:27:09.310Z,35.50
2022-08-23T15:29:55.821Z,35.80
2022-08-23T15:32:44.378Z,35.40
2022-08-23T15:35:41.871Z,35.60
2022-08-23T15:38:29.106Z,35.40
2022-08-23T15:41:16.434Z,35.40
2022-08-23T15:44:04.985Z,35.40
2022-08-23T15:46:51.758Z,35.40
2022-08-23T15:49:38.860Z,35.30
2022-08-23T15:52:27.316Z,35.10
2022-08-23T15:55:14.438Z,35.10
2022-08-23T15:58:01.293Z,34.80
2022-08-23T16:00:50.292Z,34.80
2022-08-23T16:03:38.199Z,34.80
2022-08-23T16:06:24.859Z,34.50
2022-08-23T16:09:16.872Z,34.60
2022-08-23T16:12:03.920Z,34.40
2022-08-23T16:14:50.554Z,34.20
2022-08-23T16:17:39.802Z,34.20
2022-08-23T16:20:26.780Z,34.00
2022-08-23T16:23:13.676Z,33.60
2022-08-23T16:26:01.392Z,33.50
2022-08-23T16:28:50.879Z,33.50
2022-08-23T16:31:39.830Z,33.50
2022-08-23T16:34:28.014Z,33.50
2022-08-23T16:37:14.595Z,33.50
2022-08-23T16:40:01.646Z,33.00
2022-08-23T16:42:48.552Z,33.10
2022-08-23T16:45:35.058Z,33.10
2022-08-23T16:48:22.264Z,33.10
2022-08-23T16:51:10.059Z,33.20
2022-08-23T16:54:02.365Z,33.10
2022-08-23T16:56:50.157Z,32.90
2022-08-23T16:59:40.385Z,32.70
2022-08-23T17:02:30.223Z,32.50
2022-08-23T17:05:19.430Z,32.60
2022-08-23T17:08:07.348Z,32.60
2022-08-23T17:10:54.041Z,32.40
2022-08-23T17:13:40.991Z,32.30
2022-08-23T17:16:27.423Z,32.40
2022-08-23T17:19:15.361Z,32.30
2022-08-23T17:22:01.844Z,32.10
2022-08-23T17:24:53.154Z,31.90
2022-08-23T17:27:45.562Z,31.80
2022-08-23T17:30:33.271Z,31.80
2022-08-23T17:33:19.669Z,31.70
2022-08-23T17:36:07.069Z,31.50
2022-08-23T17:38:53.597Z,31.50
2022-08-23T17:41:45.156Z,31.40
2022-08-23T17:44:32.266Z,31.40
2022-08-23T17:47:20.513Z,31.30
2022-08-23T17:50:08.305Z,31.20
2022-08-23T17:52:55.152Z,31.10
2022-08-23T17:55:42.013Z,30.90
2022-08-23T17:58:30.763Z,30.80
2022-08-23T18:01:17.645Z,30.70
2022-08-23T18:04:05.600Z,30.60
2022-08-23T18:06:52.222Z,30.40
2022-08-23T18:09:48.283Z,30.40
2022-08-23T18:12:35.361Z,30.40
2022-08-23T18:15:23.700Z,30.20
2022-08-23T18:18:10.168Z,30.20
2022-08-23T18:20:57.092Z,30.10
2022-08-23T18:23:43.700Z,29.90
2022-08-23T18:26:48.027Z,30.00
2022-08-23T18:29:36.285Z,30.00
2022-08-23T18:32:24.502Z,29.70
2022-08-23T18:35:11.165Z,29.70
2022-08-23T18:37:58.652Z,29.80
2022-08-23T18:40:48.110Z,29.80
2022-08-23T18:43:37.211Z,29.70
2022-08-23T18:46:24.107Z,29.70
2022-08-23T18:49:12.866Z,29.70
2022-08-23T18:51:59.497Z,29.70
2022-08-23T18:54:46.464Z,29.70
2022-08-23T18:57:33.438Z,29.60
2022-08-23T19:00:21.021Z,29.50
2022-08-23T19:03:08.353Z,29.40
2022-08-23T19:05:59.477Z,29.40
2022-08-23T19:08:46.598Z,29.30
2022-08-23T19:11:33.957Z,29.20
2022-08-23T19:14:20.719Z,29.10
2022-08-23T19:17:09.023Z,29.00
2022-08-23T19:19:56.508Z,28.60
2022-08-23T19:22:44.477Z,28.40
2022-08-23T19:25:33.935Z,28.30
2022-08-23T19:28:20.724Z,28.40
2022-08-23T19:31:08.345Z,28.50
2022-08-23T19:33:55.152Z,28.50
2022-08-23T19:36:47.361Z,28.70
2022-08-23T19:39:37.805Z,28.70
2022-08-23T19:42:26.446Z,28.70
2022-08-23T19:45:13.884Z,28.70
2022-08-23T19:48:00.521Z,28.60
2022-08-23T19:50:48.399Z,28.50
2022-08-23T19:53:35.237Z,28.40
2022-08-23T19:56:23.204Z,28.40
2022-08-23T19:59:12.658Z,28.30
2022-08-23T20:02:00.666Z,28.20
2022-08-23T20:04:47.610Z,28.10
2022-08-23T20:07:34.085Z,27.70
2022-08-23T20:10:21.597Z,27.50
2022-08-23T20:13:09.675Z,27.50
2022-08-23T20:15:56.564Z,27.60
2022-08-23T20:18:44.040Z,27.70
2022-08-23T20:21:30.908Z,27.70
2022-08-23T20:24:22.822Z,27.70
2022-08-23T20:27:24.137Z,27.70
2022-08-23T20:30:19.532Z,27.80
2022-08-23T20:33:06.509Z,27.90
2022-08-23T20:35:52.839Z,27.90
2022-08-23T20:38:39.744Z,28.00
2022-08-23T20:41:27.690Z,27.90
2022-08-23T20:44:15.772Z,27.80
2022-08-23T20:47:03.718Z,27.60
2022-08-23T20:49:50.354Z,27.50
2022-08-23T20:52:37.703Z,27.60
2022-08-23T20:55:24.731Z,27.60
2022-08-23T20:58:11.355Z,27.60
2022-08-23T21:00:58.055Z,27.60
2022-08-23T21:03:46.262Z,27.60
2022-08-23T21:06:39.076Z,27.50
2022-08-23T21:09:30.454Z,27.30
2022-08-23T21:12:17.028Z,27.30
2022-08-23T21:15:05.914Z,27.40
2022-08-23T21:17:55.653Z,27.40
2022-08-23T21:20:43.656Z,27.40
2022-08-23T21:23:30.329Z,27.40
2022-08-23T21:26:17.708Z,27.40
2022-08-23T21:29:05.391Z,27.40
2022-08-23T21:31:52.084Z,27.40
2022-08-23T21:34:38.573Z,27.40
2022-08-23T21:37:26.509Z,27.40
2022-08-23T21:40:13.974Z,27.40
2022-08-23T21:43:01.215Z,27.40
2022-08-23T21:45:48.137Z,27.40
2022-08-23T21:48:34.920Z,27.50
2022-08-23T21:51:21.688Z,27.40
2022-08-23T21:54:10.667Z,27.40
2022-08-23T21:56:57.666Z,27.40
2022-08-23T21:59:44.317Z,27.50
2022-08-23T22:02:31.611Z,27.40
2022-08-23T22:05:18.383Z,27.30
2022-08-23T22:08:05.181Z,27.20
2022-08-23T22:10:57.956Z,27.20
2022-08-23T22:13:45.025Z,27.10
2022-08-23T22:16:31.490Z,26.90
2022-08-23T22:19:20.084Z,26.90
2022-08-23T22:22:06.789Z,27.00
2022-08-23T22:24:54.047Z,27.00
2022-08-23T22:27:41.927Z,27.00
2022-08-23T22:30:28.583Z,27.00
2022-08-23T22:33:15.015Z,26.90
2022-08-23T22:36:04.969Z,26.90
2022-08-23T22:38:52.566Z,26.90
2022-08-23T22:41:39.801Z,27.00
2022-08-23T22:44:28.550Z,26.90
2022-08-23T22:47:15.239Z,26.70
2022-08-23T22:50:03.267Z,26.50
2022-08-23T22:52:49.880Z,26.30
2022-08-23T22:55:36.545Z,26.10
2022-08-23T22:58:23.087Z,26.00
2022-08-23T23:01:18.355Z,26.00
2022-08-23T23:04:08.133Z,26.00
2022-08-23T23:06:55.828Z,25.90
2022-08-23T23:09:42.617Z,25.90
2022-08-23T23:12:30.003Z,26.00
2022-08-23T23:15:16.826Z,25.90
2022-08-23T23:18:05.097Z,25.80
2022-08-23T23:20:51.788Z,25.80
2022-08-23T23:23:38.657Z,25.80
2022-08-23T23:26:25.247Z,25.90
2022-08-23T23:29:11.860Z,26.00
2022-08-23T23:31:58.874Z,26.70
2022-08-23T23:34:47.922Z,26.20
2022-08-23T23:37:34.465Z,26.20
2022-08-23T23:40:21.143Z,26.20
2022-08-23T23:43:09.124Z,26.30
2022-08-23T23:45:59.534Z,26.30
2022-08-23T23:48:49.077Z,26.30
2022-08-23T23:51:37.202Z,26.30
2022-08-23T23:54:24.051Z,26.30
2022-08-23T23:57:11.010Z,26.30
2022-08-23T23:59:57.976Z,26.30
